Time;durP1;ratioP1;P1;durP2;ratioP2;P2;SDS_P1;SDS_P2;PMS_P1;PMS_P2;Temp;Humidity;BMP_temperature;BMP_pressure;BME280_temperature;BME280_humidity;BME280_pressure;Samples;Min_cycle;Max_cycle;Signal;HPM_P1;HPM_P2
2021/04/20 00:00:14;;;;;;;11.10;5.50;;;;;;;19.54;48.70;101164.75;489499;28;814;-67
2021/04/20 00:00:29;;;;;;;10.57;5.65;;;;;;;19.54;48.55;101164.75;487874;28;42866;-67
2021/04/20 00:00:43;;;;;;;10.50;5.60;;;;;;;19.54;48.63;101168.31;489239;28;1227;-67
2021/04/20 00:00:57;;;;;;;11.40;5.45;;;;;;;19.53;48.41;101161.19;489252;28;819;-66
2021/04/20 00:01:13;;;;;;;11.63;5.43;;;;;;;19.54;48.45;101156.63;489066;28;921;-66
2021/04/20 00:01:27;;;;;;;10.10;5.32;;;;;;;19.51;48.56;101158.69;489230;28;929;-67
2021/04/20 00:01:42;;;;;;;9.90;5.27;;;;;;;19.51;48.36;101161.38;489243;28;924;-66
2021/04/20 00:01:56;;;;;;;10.43;5.50;;;;;;;19.53;48.55;101163.91;488673;28;894;-66
2021/04/20 00:02:12;;;;;;;10.57;5.63;;;;;;;19.53;48.44;101158.50;489089;28;1040;-66
2021/04/20 00:02:26;;;;;;;10.48;5.68;;;;;;;19.53;48.61;101158.50;489339;28;934;-67
2021/04/20 00:02:41;;;;;;;11.07;5.77;;;;;;;19.54;48.54;101162.03;488774;28;883;-66
2021/04/20 00:02:56;;;;;;;11.05;5.50;;;;;;;19.53;48.38;101163.91;489084;28;839;-66
2021/04/20 00:03:10;;;;;;;9.68;5.18;;;;;;;19.52;48.34;101164.94;489309;28;975;-66
2021/04/20 00:03:25;;;;;;;9.47;5.30;;;;;;;19.53;48.46;101163.91;489175;28;854;-66
2021/04/20 00:03:39;;;;;;;10.82;5.50;;;;;;;19.52;48.63;101156.81;489136;28;843;-66
2021/04/20 00:03:54;;;;;;;10.77;5.43;;;;;;;19.53;48.43;101158.50;489229;28;873;-67
2021/04/20 00:04:08;;;;;;;10.30;5.60;;;;;;;19.52;48.50;101162.22;489251;28;815;-66
2021/04/20 00:04:23;;;;;;;11.07;5.57;;;;;;;19.51;48.51;101158.69;489374;28;936;-66
2021/04/20 00:04:37;;;;;;;10.63;5.40;;;;;;;19.52;48.61;101159.53;489133;28;869;-66
2021/04/20 00:04:52;;;;;;;10.15;5.70;;;;;;;19.53;48.53;101161.19;489418;28;791;-66
2021/04/20 00:05:10;;;;;;;10.63;5.50;;;;;;;19.52;48.52;101160.34;489468;28;1033;-67
2021/04/20 00:05:24;;;;;;;11.85;5.30;;;;;;;19.52;48.48;101160.34;488407;28;19302;-66
2021/04/20 00:05:39;;;;;;;11.60;5.32;;;;;;;19.53;48.61;101158.50;489324;28;853;-66
2021/04/20 00:05:53;;;;;;;11.57;5.33;;;;;;;19.52;48.52;101160.34;489408;28;938;-66
2021/04/20 00:06:08;;;;;;;11.60;5.03;;;;;;;19.53;48.49;101153.06;489130;28;959;-66
2021/04/20 00:06:23;;;;;;;10.68;4.90;;;;;;;19.52;48.49;101157.66;489582;28;854;-66
2021/04/20 00:06:37;;;;;;;12.80;5.30;;;;;;;19.52;48.44;101164.94;489493;28;930;-66
2021/04/20 00:06:52;;;;;;;11.43;5.10;;;;;;;19.51;48.55;101161.38;489461;28;917;-66
2021/04/20 00:07:07;;;;;;;9.80;5.07;;;;;;;19.51;48.43;101158.69;489275;28;800;-67
2021/04/20 00:07:22;;;;;;;12.02;5.53;;;;;;;19.51;48.45;101158.69;489384;28;862;-67
2021/04/20 00:07:36;;;;;;;12.33;5.90;;;;;;;19.51;48.43;101157.81;489295;28;957;-67
2021/04/20 00:07:51;;;;;;;12.05;5.85;;;;;;;19.51;48.54;101158.69;489146;28;977;-66
2021/04/20 00:08:06;;;;;;;11.37;5.57;;;;;;;19.52;48.54;101159.53;489280;28;830;-66
2021/04/20 00:08:21;;;;;;;10.80;5.47;;;;;;;19.51;48.54;101164.09;489197;28;1124;-66
2021/04/20 00:08:36;;;;;;;11.88;5.68;;;;;;;19.50;48.37;101156.97;488882;28;1136;-66
2021/04/20 00:08:51;;;;;;;10.90;5.53;;;;;;;19.51;48.48;101157.81;489297;28;870;-66
2021/04/20 00:09:07;;;;;;;9.43;5.23;;;;;;;19.51;48.45;101163.25;489250;28;879;-67
2021/04/20 00:09:22;;;;;;;10.50;5.65;;;;;;;19.51;48.50;101164.09;488653;28;858;-66
2021/04/20 00:09:36;;;;;;;11.73;5.60;;;;;;;19.51;48.55;101164.09;489383;28;1025;-66
2021/04/20 00:09:51;;;;;;;11.95;5.32;;;;;;;19.50;48.40;101159.69;489495;28;1068;-67
2021/04/20 00:10:10;;;;;;;11.10;5.33;;;;;;;19.51;48.54;101160.53;489368;28;868;-67
2021/04/20 00:10:25;;;;;;;9.80;5.30;;;;;;;19.52;48.63;101162.22;487120;28;67156;-67
2021/04/20 00:10:39;;;;;;;11.23;5.35;;;;;;;19.51;48.46;101157.81;489472;28;918;-67
2021/04/20 00:10:54;;;;;;;13.17;5.47;;;;;;;19.51;48.57;101160.53;489527;28;1040;-66
2021/04/20 00:11:09;;;;;;;12.98;5.47;;;;;;;19.50;48.53;101159.69;489122;28;913;-67
2021/04/20 00:11:24;;;;;;;11.50;5.68;;;;;;;19.51;48.42;101163.25;489368;28;937;-66
2021/04/20 00:11:39;;;;;;;10.82;5.72;;;;;;;19.51;48.56;101164.09;489437;28;886;-67
2021/04/20 00:11:53;;;;;;;11.10;5.53;;;;;;;19.50;48.35;101159.69;489307;28;969;-67
2021/04/20 00:12:08;;;;;;;11.33;5.60;;;;;;;19.51;48.60;101157.81;489436;28;894;-66
2021/04/20 00:12:23;;;;;;;10.32;5.57;;;;;;;19.51;48.49;101160.53;489368;28;1257;-67
2021/04/20 00:12:37;;;;;;;10.13;5.38;;;;;;;19.51;48.49;101157.81;489309;28;887;-67
2021/04/20 00:12:52;;;;;;;10.23;5.00;;;;;;;19.50;48.47;101159.69;489471;28;796;-66
2021/04/20 00:13:06;;;;;;;10.02;4.90;;;;;;;19.50;48.31;101159.69;489400;28;816;-66
2021/04/20 00:13:21;;;;;;;10.40;5.20;;;;;;;19.51;48.56;101161.38;489442;28;791;-67
2021/04/20 00:13:35;;;;;;;11.30;5.43;;;;;;;19.51;48.35;101160.53;489067;28;935;-67
2021/04/20 00:13:50;;;;;;;11.57;5.70;;;;;;;19.51;48.49;101163.25;489494;28;929;-67
2021/04/20 00:14:06;;;;;;;10.20;5.50;;;;;;;19.51;48.49;101161.38;489397;28;1048;-67
2021/04/20 00:14:21;;;;;;;10.23;5.40;;;;;;;19.52;48.56;101164.94;489268;28;977;-67
2021/04/20 00:14:35;;;;;;;10.02;4.97;;;;;;;19.51;48.23;101157.81;489387;28;965;-67
2021/04/20 00:14:50;;;;;;;9.80;5.15;;;;;;;19.49;48.27;101165.28;489502;28;831;-66
2021/04/20 00:15:13;;;;;;;10.10;5.73;;;;;;;19.50;48.61;101156.97;489276;28;1073;-66
2021/04/20 00:15:30;;;;;;;9.25;5.13;;;;;;;19.52;48.43;101163.06;486729;28;67604;-66
2021/04/20 00:15:45;;;;;;;11.30;5.30;;;;;;;19.52;48.32;101162.22;489496;28;878;-66
2021/04/20 00:15:59;;;;;;;11.77;5.23;;;;;;;19.52;48.27;101163.06;489209;28;920;-66
2021/04/20 00:16:14;;;;;;;12.23;5.47;;;;;;;19.54;47.83;101160.19;489336;28;1981;-66
2021/04/20 00:16:28;;;;;;;11.93;5.50;;;;;;;19.59;47.90;101159.63;489392;28;877;-66
2021/04/20 00:16:42;;;;;;;10.83;5.30;;;;;;;19.63;47.97;101161.78;488937;28;1119;-66
2021/04/20 00:16:57;;;;;;;11.48;5.80;;;;;;;19.64;47.96;101158.03;489277;28;805;-68
2021/04/20 00:17:12;;;;;;;12.63;5.70;;;;;;;19.64;47.71;101168.06;489405;28;878;-66
2021/04/20 00:17:26;;;;;;;12.23;5.47;;;;;;;19.63;47.74;101160.94;489217;28;930;-65
2021/04/20 00:17:40;;;;;;;12.60;5.63;;;;;;;19.64;47.86;101162.63;489313;28;948;-66
2021/04/20 00:17:57;;;;;;;12.00;5.75;;;;;;;19.62;48.08;101164.69;489527;28;882;-65
2021/04/20 00:18:11;;;;;;;12.13;5.65;;;;;;;19.64;47.91;101163.47;489392;28;945;-67
2021/04/20 00:18:26;;;;;;;11.73;5.45;;;;;;;19.67;47.92;101162.25;489190;28;841;-66
2021/04/20 00:18:40;;;;;;;10.73;5.33;;;;;;;19.68;47.73;101161.22;489409;28;1032;-66
2021/04/20 00:18:54;;;;;;;11.05;5.63;;;;;;;19.70;47.55;101161.88;489441;28;969;-66
2021/04/20 00:19:09;;;;;;;11.73;5.90;;;;;;;19.70;47.64;101159.16;489367;28;1044;-64
2021/04/20 00:19:23;;;;;;;13.13;5.80;;;;;;;19.70;47.58;101161.88;489093;28;888;-64
2021/04/20 00:19:37;;;;;;;13.73;5.63;;;;;;;19.69;47.68;101166.47;489481;28;997;-65
2021/04/20 00:19:52;;;;;;;12.13;5.67;;;;;;;19.68;47.63;101169.38;489487;28;890;-66
2021/04/20 00:20:10;;;;;;;11.30;5.85;;;;;;;19.68;47.58;101162.06;489170;28;946;-66
2021/04/20 00:20:25;;;;;;;11.90;5.68;;;;;;;19.65;47.58;101165.16;488859;28;18745;-65
2021/04/20 00:20:39;;;;;;;12.27;5.57;;;;;;;19.67;47.62;101167.69;489177;28;901;-64
2021/04/20 00:20:54;;;;;;;12.60;5.73;;;;;;;19.66;47.78;101160.56;489248;28;860;-64
2021/04/20 00:21:08;;;;;;;12.17;5.87;;;;;;;19.65;47.80;101161.59;489333;28;980;-65
2021/04/20 00:21:22;;;;;;;10.88;5.50;;;;;;;19.64;48.11;101163.47;489269;28;1224;-66
2021/04/20 00:21:37;;;;;;;10.90;5.47;;;;;;;19.65;47.76;101164.31;489437;28;807;-66
2021/04/20 00:21:51;;;;;;;11.05;5.47;;;;;;;19.65;47.78;101167.03;489207;28;868;-64
2021/04/20 00:22:05;;;;;;;10.90;5.40;;;;;;;19.64;47.86;101157.19;489156;28;1151;-64
2021/04/20 00:22:20;;;;;;;11.10;5.50;;;;;;;19.63;47.92;101155.50;489287;28;863;-65
2021/04/20 00:22:34;;;;;;;11.07;5.57;;;;;;;19.62;48.06;101162.81;489137;28;921;-64
2021/04/20 00:22:49;;;;;;;10.53;5.47;;;;;;;19.62;47.90;101159.25;489169;28;897;-65
2021/04/20 00:23:05;;;;;;;10.35;5.55;;;;;;;19.63;47.93;101164.50;489290;28;930;-64
2021/04/20 00:23:20;;;;;;;9.63;5.18;;;;;;;19.60;48.02;101164.03;489054;28;915;-65
2021/04/20 00:23:34;;;;;;;10.03;5.10;;;;;;;19.61;47.92;101165.72;489209;28;1040;-66
2021/04/20 00:23:49;;;;;;;11.30;5.40;;;;;;;19.62;47.87;101161.97;489213;28;993;-66
2021/04/20 00:24:04;;;;;;;10.63;5.47;;;;;;;19.61;47.88;101160.28;488853;28;866;-66
2021/04/20 00:24:18;;;;;;;9.45;5.15;;;;;;;19.60;47.93;101158.59;489176;28;1061;-64
2021/04/20 00:24:33;;;;;;;11.00;5.13;;;;;;;19.60;48.14;101162.16;489466;28;819;-65
2021/04/20 00:24:48;;;;;;;11.13;5.20;;;;;;;19.61;47.98;101160.28;489385;28;929;-64
2021/04/20 00:25:03;;;;;;;9.63;5.10;;;;;;;19.59;48.06;101155.03;489267;28;869;-66
2021/04/20 00:25:17;;;;;;;9.88;5.40;;;;;;;19.58;47.95;101155.22;489336;28;1347;-65
2021/04/20 00:25:32;;;;;;;9.30;5.30;;;;;;;19.59;47.95;101159.63;489373;28;914;-66
2021/04/20 00:25:46;;;;;;;10.13;5.10;;;;;;;19.59;48.17;101148.75;489264;28;993;-66
2021/04/20 00:26:01;;;;;;;14.98;5.22;;;;;;;19.58;48.05;101156.06;489451;28;887;-66
2021/04/20 00:26:15;;;;;;;16.10;5.50;;;;;;;19.57;48.01;101157.09;489322;28;945;-66
2021/04/20 00:26:30;;;;;;;11.63;5.40;;;;;;;19.58;48.09;101164.22;489443;28;1016;-66
2021/04/20 00:26:44;;;;;;;10.17;5.20;;;;;;;19.58;47.97;101158.78;489297;28;873;-65
2021/04/20 00:26:59;;;;;;;11.63;5.22;;;;;;;19.59;48.19;101157.75;489368;28;838;-66
2021/04/20 00:27:13;;;;;;;13.80;5.20;;;;;;;19.58;48.02;101161.50;489336;28;1020;-66
2021/04/20 00:27:27;;;;;;;11.57;5.23;;;;;;;19.57;48.01;101158.97;489122;28;985;-67
2021/04/20 00:27:42;;;;;;;9.53;5.20;;;;;;;19.58;48.21;101158.78;489400;28;910;-67
2021/04/20 00:27:56;;;;;;;11.47;5.50;;;;;;;19.59;48.15;101156.91;489506;28;827;-67
2021/04/20 00:28:11;;;;;;;11.52;5.47;;;;;;;19.57;47.77;101150.81;489414;28;898;-67
2021/04/20 00:28:27;;;;;;;10.93;5.30;;;;;;;19.58;48.23;101155.22;489076;28;1243;-66
2021/04/20 00:28:41;;;;;;;10.70;5.30;;;;;;;19.58;48.45;101153.34;489491;28;1114;-67
2021/04/20 00:28:56;;;;;;;9.80;5.00;;;;;;;19.57;48.33;101159.81;489427;28;810;-66
2021/04/20 00:29:10;;;;;;;9.68;4.95;;;;;;;19.58;48.05;101158.78;489159;28;902;-66
2021/04/20 00:29:25;;;;;;;9.33;5.10;;;;;;;19.58;48.01;101155.22;489201;28;894;-66
2021/04/20 00:29:39;;;;;;;11.33;5.30;;;;;;;19.57;48.14;101158.97;489427;28;909;-66
2021/04/20 00:29:53;;;;;;;11.85;5.50;;;;;;;19.57;48.10;101156.25;489344;28;993;-66
2021/04/20 00:30:10;;;;;;;10.67;5.50;;;;;;;19.58;48.13;101155.22;489394;28;894;-65
2021/04/20 00:30:24;;;;;;;9.60;5.13;;;;;;;19.57;47.94;101150.81;489256;28;838;-66
2021/04/20 00:30:40;;;;;;;9.73;4.90;;;;;;;19.57;47.95;101156.25;489387;28;979;-65
2021/04/20 00:30:55;;;;;;;10.93;5.20;;;;;;;19.57;48.10;101156.25;489303;28;890;-64
2021/04/20 00:31:09;;;;;;;11.30;5.10;;;;;;;19.57;47.97;101151.66;489339;28;940;-67
2021/04/20 00:31:24;;;;;;;10.90;5.10;;;;;;;19.59;48.34;101160.47;488905;28;869;-67
2021/04/20 00:31:38;;;;;;;10.87;5.20;;;;;;;19.58;48.05;101150.63;489129;28;826;-68
2021/04/20 00:31:52;;;;;;;11.90;5.23;;;;;;;19.57;48.43;101157.09;489450;28;1059;-66
2021/04/20 00:32:08;;;;;;;11.50;5.33;;;;;;;19.57;48.32;101158.97;489402;28;811;-66
2021/04/20 00:32:22;;;;;;;10.07;5.40;;;;;;;19.58;48.38;101155.22;489166;28;891;-66
2021/04/20 00:32:37;;;;;;;11.47;5.50;;;;;;;19.57;48.43;101151.66;489428;28;855;-67
2021/04/20 00:32:51;;;;;;;10.75;5.35;;;;;;;19.58;48.12;101153.34;489430;28;823;-67
2021/04/20 00:33:05;;;;;;;11.63;5.20;;;;;;;19.59;48.36;101165.06;489448;28;1017;-66
2021/04/20 00:33:21;;;;;;;12.27;5.17;;;;;;;19.58;48.40;101163.38;489080;28;945;-66
2021/04/20 00:33:35;;;;;;;9.95;5.22;;;;;;;19.58;48.40;101156.06;489293;28;1167;-66
2021/04/20 00:33:50;;;;;;;9.13;5.30;;;;;;;19.58;48.30;101155.22;489434;28;846;-66
2021/04/20 00:34:05;;;;;;;10.25;5.47;;;;;;;19.57;48.22;101162.53;488952;28;1452;-66
2021/04/20 00:34:19;;;;;;;11.10;5.45;;;;;;;19.58;48.26;101155.22;489207;28;897;-67
2021/04/20 00:34:33;;;;;;;10.37;5.20;;;;;;;19.57;48.31;101157.09;489207;28;854;-66
2021/04/20 00:34:48;;;;;;;10.18;5.05;;;;;;;19.58;48.33;101160.66;488988;28;988;-66
2021/04/20 00:35:04;;;;;;;10.77;5.10;;;;;;;19.57;48.51;101162.53;489270;28;1020;-66
2021/04/20 00:35:19;;;;;;;11.02;5.03;;;;;;;19.57;48.33;101153.53;489134;28;1215;-66
2021/04/20 00:35:33;;;;;;;9.93;4.90;;;;;;;19.57;48.16;101159.81;489067;28;799;-64
2021/04/20 00:35:48;;;;;;;9.50;5.10;;;;;;;19.58;48.29;101157.94;488870;28;818;-66
2021/04/20 00:36:04;;;;;;;10.98;5.13;;;;;;;19.56;48.28;101160.84;489331;28;925;-66
2021/04/20 00:36:18;;;;;;;10.07;4.90;;;;;;;19.57;48.24;101154.38;489457;28;1925;-66
2021/04/20 00:36:33;;;;;;;9.45;5.00;;;;;;;19.58;48.18;101156.06;489086;28;968;-66
2021/04/20 00:36:48;;;;;;;9.93;5.20;;;;;;;19.56;48.11;101155.41;489428;28;1020;-66
2021/04/20 00:37:02;;;;;;;9.20;5.13;;;;;;;19.58;48.31;101155.22;489417;28;818;-66
2021/04/20 00:37:16;;;;;;;8.67;5.00;;;;;;;19.57;48.35;101156.25;489244;28;791;-66
2021/04/20 00:37:31;;;;;;;9.27;4.93;;;;;;;19.57;48.36;101164.38;489155;28;898;-66
2021/04/20 00:37:46;;;;;;;10.48;5.28;;;;;;;19.57;48.25;101154.38;489509;28;893;-66
2021/04/20 00:38:00;;;;;;;10.47;5.57;;;;;;;19.58;48.39;101161.50;489413;28;968;-66
2021/04/20 00:38:15;;;;;;;9.37;5.47;;;;;;;19.57;48.42;101161.69;489227;28;1072;-66
2021/04/20 00:38:29;;;;;;;9.17;5.13;;;;;;;19.56;48.28;101154.56;489372;28;912;-66
2021/04/20 00:38:44;;;;;;;10.80;5.32;;;;;;;19.57;48.29;101158.97;489264;28;913;-66
2021/04/20 00:38:58;;;;;;;13.33;5.47;;;;;;;19.56;48.32;101157.28;488906;28;798;-66
2021/04/20 00:39:12;;;;;;;13.55;5.40;;;;;;;19.55;48.29;101159.16;489361;28;984;-66
2021/04/20 00:39:27;;;;;;;12.67;5.50;;;;;;;19.54;48.33;101152.03;489089;28;973;-66
2021/04/20 00:39:41;;;;;;;13.10;5.53;;;;;;;19.55;48.35;101164.56;489440;28;914;-66
2021/04/20 00:39:56;;;;;;;11.70;5.32;;;;;;;19.55;48.18;101153.72;489257;28;881;-67
2021/04/20 00:40:13;;;;;;;11.20;5.30;;;;;;;19.54;48.26;101160.19;489461;28;869;-67
2021/04/20 00:40:27;;;;;;;10.82;5.35;;;;;;;19.53;48.33;101163.91;488673;28;19341;-66
2021/04/20 00:40:42;;;;;;;10.20;5.60;;;;;;;19.54;48.52;101157.47;489223;28;862;-67
2021/04/20 00:41:03;;;;;;;10.88;5.63;;;;;;;19.54;48.35;101157.47;489453;28;1052;-67
2021/04/20 00:41:17;;;;;;;9.18;5.10;;;;;;;19.54;48.36;101153.91;487182;28;65511;-67
2021/04/20 00:41:32;;;;;;;8.53;5.27;;;;;;;19.53;48.42;101161.19;488923;28;838;-67
2021/04/20 00:41:59;;;;;;;9.35;5.10;;;;;;;19.54;48.50;101156.63;489365;28;944;-67
2021/04/20 00:42:14;;;;;;;11.65;4.78;;;;;;;19.54;48.44;101159.34;486979;28;65169;-66
2021/04/20 00:42:28;;;;;;;10.40;4.90;;;;;;;19.54;48.38;101159.34;489359;28;1071;-67
2021/04/20 00:42:46;;;;;;;10.47;5.30;;;;;;;19.54;48.29;101146.59;489395;28;802;-67
2021/04/20 00:43:01;;;;;;;9.38;5.10;;;;;;;19.54;48.47;101157.47;488574;28;19176;-67
2021/04/20 00:43:15;;;;;;;9.23;5.10;;;;;;;19.53;48.58;101155.78;489426;28;830;-68
2021/04/20 00:43:41;;;;;;;10.47;5.00;;;;;;;19.54;48.55;101156.63;489201;28;870;-67
2021/04/20 00:43:56;;;;;;;9.63;5.35;;;;;;;19.54;48.84;101157.47;486948;28;65526;-67
2021/04/20 00:44:10;;;;;;;9.23;5.30;;;;;;;19.54;48.35;101157.47;489399;28;909;-67
2021/04/20 00:44:24;;;;;;;9.57;5.20;;;;;;;19.55;48.34;101158.31;489449;28;810;-67
2021/04/20 00:44:39;;;;;;;10.18;5.28;;;;;;;19.55;48.43;101158.31;489051;28;989;-67
2021/04/20 00:44:53;;;;;;;9.63;5.30;;;;;;;19.54;48.40;101154.75;489464;28;925;-67
2021/04/20 00:45:09;;;;;;;9.13;5.20;;;;;;;19.54;48.39;101153.91;489404;28;889;-66
2021/04/20 00:45:26;;;;;;;9.45;4.97;;;;;;;19.54;48.55;101159.34;489301;28;928;-67
2021/04/20 00:45:43;;;;;;;10.18;4.80;;;;;;;19.53;48.86;101155.78;488466;28;19169;-67
2021/04/20 00:45:57;;;;;;;8.02;4.65;;;;;;;19.54;48.50;101156.63;489416;28;909;-68
2021/04/20 00:46:14;;;;;;;8.13;5.00;;;;;;;19.54;48.48;101152.03;488955;28;1040;-68
2021/04/20 00:46:29;;;;;;;8.85;5.05;;;;;;;19.54;48.71;101149.31;488568;28;18878;-68
2021/04/20 00:46:43;;;;;;;8.37;5.00;;;;;;;19.54;48.51;101152.03;489344;28;918;-67
2021/04/20 00:46:58;;;;;;;8.95;5.10;;;;;;;19.53;48.54;101155.78;489413;28;1031;-67
2021/04/20 00:47:13;;;;;;;9.75;5.10;;;;;;;19.52;48.56;101154.09;489160;28;1040;-67
2021/04/20 00:47:27;;;;;;;10.47;5.10;;;;;;;19.54;48.38;101156.63;489263;28;822;-67
2021/04/20 00:47:42;;;;;;;9.95;5.32;;;;;;;19.53;48.70;101155.78;489206;28;1237;-67
2021/04/20 00:47:57;;;;;;;10.55;5.30;;;;;;;19.54;48.58;101156.63;489183;28;1056;-67
2021/04/20 00:48:11;;;;;;;10.80;5.20;;;;;;;19.51;48.36;101144.25;489447;28;794;-67
2021/04/20 00:48:26;;;;;;;10.48;5.45;;;;;;;19.53;48.42;101153.06;489357;28;1036;-67
2021/04/20 00:48:41;;;;;;;10.50;5.40;;;;;;;19.54;48.30;101153.91;489027;28;1309;-68
2021/04/20 00:48:57;;;;;;;10.77;5.50;;;;;;;19.53;48.70;101153.06;489064;28;1033;-68
2021/04/20 00:49:11;;;;;;;10.15;5.63;;;;;;;19.52;48.43;101154.94;489257;28;842;-68
2021/04/20 00:49:26;;;;;;;9.98;5.60;;;;;;;19.55;48.76;101155.59;489063;28;973;-65
2021/04/20 00:49:41;;;;;;;10.00;5.40;;;;;;;19.54;48.63;101148.47;488964;28;1098;-64
2021/04/20 00:49:55;;;;;;;9.07;5.13;;;;;;;19.54;48.54;101153.91;489188;28;917;-65
2021/04/20 00:50:11;;;;;;;8.75;4.95;;;;;;;19.54;48.48;101151.19;489227;28;949;-67
2021/04/20 00:50:28;;;;;;;10.65;5.00;;;;;;;19.54;48.72;101154.75;489036;28;881;-67
2021/04/20 00:50:43;;;;;;;11.95;5.35;;;;;;;19.54;48.37;101153.91;489086;28;1099;-67
2021/04/20 00:50:57;;;;;;;10.77;5.30;;;;;;;19.54;48.41;101149.31;489369;28;874;-67
2021/04/20 00:51:13;;;;;;;9.30;5.07;;;;;;;19.54;48.50;101151.19;489328;28;945;-68
2021/04/20 00:51:27;;;;;;;9.43;5.18;;;;;;;19.54;48.20;101156.63;487323;28;963;-68
2021/04/20 00:51:41;;;;;;;10.85;5.40;;;;;;;19.55;48.62;101155.59;487439;28;814;-68
2021/04/20 00:51:56;;;;;;;10.67;5.60;;;;;;;19.56;48.54;101157.28;487373;28;1000;-68
2021/04/20 00:52:11;;;;;;;10.10;5.50;;;;;;;19.53;48.55;101153.06;487578;28;977;-68
2021/04/20 00:52:25;;;;;;;9.43;5.10;;;;;;;19.54;48.33;101154.75;487461;28;866;-68
2021/04/20 00:52:40;;;;;;;10.00;5.00;;;;;;;19.54;48.54;101149.31;487488;28;910;-68
2021/04/20 00:52:54;;;;;;;11.55;5.13;;;;;;;19.55;48.45;101150.16;487517;28;819;-67
2021/04/20 00:53:09;;;;;;;10.83;5.17;;;;;;;19.55;48.53;101152.88;487456;28;887;-67
2021/04/20 00:53:23;;;;;;;9.73;5.00;;;;;;;19.55;48.30;101150.16;487367;28;1061;-67
2021/04/20 00:53:39;;;;;;;9.40;4.90;;;;;;;19.55;48.43;101152.88;486954;28;1016;-68
2021/04/20 00:53:55;;;;;;;8.77;4.70;;;;;;;19.55;48.55;101152.88;487576;28;908;-68
2021/04/20 00:54:09;;;;;;;8.73;4.50;;;;;;;19.55;48.40;101153.72;487286;28;933;-67
2021/04/20 00:54:25;;;;;;;9.47;4.87;;;;;;;19.55;48.25;101144.72;487494;28;1258;-66
2021/04/20 00:54:39;;;;;;;10.52;5.57;;;;;;;19.55;48.50;101156.44;487494;28;897;-67
2021/04/20 00:54:53;;;;;;;10.00;5.20;;;;;;;19.56;48.35;101154.56;487508;28;1099;-65
2021/04/20 00:55:09;;;;;;;9.27;4.90;;;;;;;19.56;48.44;101152.69;487218;28;1065;-66
2021/04/20 00:55:23;;;;;;;9.75;5.28;;;;;;;19.56;48.37;101147.25;487201;28;1252;-65
2021/04/20 00:55:38;;;;;;;9.75;5.32;;;;;;;19.55;48.37;101153.72;487344;28;918;-66
2021/04/20 00:55:52;;;;;;;9.20;5.00;;;;;;;19.55;48.24;101148.28;487249;28;1196;-64
2021/04/20 00:56:07;;;;;;;9.13;4.90;;;;;;;19.57;48.42;101153.53;487287;28;831;-65
2021/04/20 00:56:21;;;;;;;12.32;5.13;;;;;;;19.56;48.29;101154.56;487191;28;1975;-66
2021/04/20 00:56:36;;;;;;;12.70;5.20;;;;;;;19.56;47.99;101154.56;487276;28;827;-65
2021/04/20 00:56:51;;;;;;;9.37;5.10;;;;;;;19.56;48.24;101154.56;487195;28;973;-66
2021/04/20 00:57:07;;;;;;;8.52;4.95;;;;;;;19.55;48.31;101156.44;487443;28;1049;-64
2021/04/20 00:57:21;;;;;;;9.52;5.00;;;;;;;19.55;48.17;101153.72;487411;28;858;-66
2021/04/20 00:57:36;;;;;;;9.57;5.07;;;;;;;19.56;48.39;101160.84;487435;28;873;-65
2021/04/20 00:57:50;;;;;;;8.83;5.10;;;;;;;19.56;48.29;101158.13;487478;28;929;-66
2021/04/20 00:58:04;;;;;;;9.30;5.13;;;;;;;19.56;48.27;101157.28;487500;28;935;-66
2021/04/20 00:58:19;;;;;;;10.57;5.25;;;;;;;19.56;48.53;101152.69;487408;28;945;-66
2021/04/20 00:58:34;;;;;;;9.70;5.03;;;;;;;19.57;48.42;101156.25;487412;28;883;-66
2021/04/20 00:58:48;;;;;;;8.50;4.90;;;;;;;19.57;48.31;101161.69;487449;28;926;-66
2021/04/20 00:59:02;;;;;;;8.57;4.82;;;;;;;19.57;48.47;101157.09;487379;28;1186;-66
2021/04/20 00:59:17;;;;;;;8.13;4.73;;;;;;;19.55;48.39;101153.72;487427;28;906;-66
2021/04/20 00:59:31;;;;;;;8.75;4.80;;;;;;;19.57;48.33;101156.25;487417;28;1121;-65
2021/04/20 00:59:46;;;;;;;9.20;5.03;;;;;;;19.57;48.38;101157.09;487427;28;834;-66
2021/04/20 01:00:00;;;;;;;8.63;5.03;;;;;;;19.55;48.19;101153.72;487385;28;1028;-66
2021/04/20 01:00:20;;;;;;;9.07;5.30;;;;;;;19.58;48.28;101152.50;487539;28;814;-66
2021/04/20 01:00:34;;;;;;;10.93;5.55;;;;;;;19.57;48.16;101154.38;485205;28;65472;-66
2021/04/20 01:00:50;;;;;;;11.07;5.23;;;;;;;19.57;48.22;101154.38;487110;28;1410;-66
2021/04/20 01:01:05;;;;;;;8.75;4.90;;;;;;;19.58;48.17;101153.34;486724;28;1417;-65
2021/04/20 01:01:20;;;;;;;8.10;5.00;;;;;;;19.57;48.30;101154.38;487356;28;1025;-66
2021/04/20 01:01:34;;;;;;;9.47;5.03;;;;;;;19.58;48.18;101155.22;487146;28;812;-65
2021/04/20 01:01:50;;;;;;;10.35;4.80;;;;;;;19.57;48.29;101153.53;487274;28;815;-66
2021/04/20 01:02:04;;;;;;;10.85;4.85;;;;;;;19.57;48.27;101154.38;487287;28;966;-66
2021/04/20 01:02:19;;;;;;;10.37;4.90;;;;;;;19.57;48.18;101154.38;487254;28;843;-66
2021/04/20 01:02:33;;;;;;;9.77;5.15;;;;;;;19.58;48.20;101160.66;487262;28;950;-66
2021/04/20 01:02:48;;;;;;;10.03;5.40;;;;;;;19.58;48.33;101152.50;487391;28;878;-66
2021/04/20 01:03:03;;;;;;;9.38;5.45;;;;;;;19.58;48.36;101161.50;487122;28;1025;-64
2021/04/20 01:03:19;;;;;;;9.10;5.50;;;;;;;19.59;48.13;101162.34;487338;28;1112;-65
2021/04/20 01:03:33;;;;;;;9.02;5.35;;;;;;;19.58;48.26;101161.50;487152;28;929;-66
2021/04/20 01:03:47;;;;;;;9.17;5.17;;;;;;;19.59;48.09;101159.63;487339;28;811;-66
2021/04/20 01:04:02;;;;;;;8.80;4.90;;;;;;;19.57;48.35;101153.53;487212;28;795;-66
2021/04/20 01:04:18;;;;;;;8.65;4.97;;;;;;;19.60;48.38;101158.59;487281;28;894;-66
2021/04/20 01:04:32;;;;;;;9.05;5.20;;;;;;;19.60;48.33;101150.44;487273;28;889;-66
2021/04/20 01:04:47;;;;;;;8.88;5.30;;;;;;;19.59;48.31;101157.75;487279;28;1041;-66
2021/04/20 01:05:03;;;;;;;8.53;5.00;;;;;;;19.59;48.51;101159.63;487275;28;871;-66
2021/04/20 01:05:21;;;;;;;8.60;5.03;;;;;;;19.59;48.17;101163.19;487590;28;941;-66
2021/04/20 01:05:37;;;;;;;8.43;4.93;;;;;;;19.59;48.38;101157.75;486581;28;18564;-66
2021/04/20 01:05:53;;;;;;;8.18;4.90;;;;;;;19.60;48.25;101158.59;487398;28;941;-66
2021/04/20 01:06:08;;;;;;;8.50;5.00;;;;;;;19.60;48.28;101159.44;487537;28;897;-65
2021/04/20 01:06:23;;;;;;;8.65;4.70;;;;;;;19.61;48.24;101157.56;487475;28;839;-66
2021/04/20 01:06:38;;;;;;;8.30;4.60;;;;;;;19.60;48.17;101161.31;487293;28;807;-66
2021/04/20 01:06:53;;;;;;;7.68;4.60;;;;;;;19.59;48.28;101157.75;487457;28;1049;-66
2021/04/20 01:07:09;;;;;;;8.02;4.70;;;;;;;19.58;48.22;101156.06;487410;28;957;-66
2021/04/20 01:07:24;;;;;;;8.75;4.93;;;;;;;19.62;48.27;101156.53;487353;28;874;-66
2021/04/20 01:07:39;;;;;;;8.75;5.00;;;;;;;19.60;48.16;101159.44;487462;28;890;-66
2021/04/20 01:08:00;;;;;;;8.95;4.90;;;;;;;19.61;48.08;101154.84;487217;28;882;-64
2021/04/20 01:08:16;;;;;;;8.48;4.80;;;;;;;19.60;48.31;101156.72;485127;28;67348;-66
2021/04/20 01:08:31;;;;;;;8.82;5.20;;;;;;;19.62;48.18;101153.81;486721;28;1097;-66
2021/04/20 01:08:47;;;;;;;9.40;5.20;;;;;;;19.61;48.05;101154.84;487466;28;929;-66
2021/04/20 01:09:05;;;;;;;9.50;4.80;;;;;;;19.62;48.22;101161.97;487365;28;957;-67
2021/04/20 01:09:20;;;;;;;10.40;5.07;;;;;;;19.60;48.09;101148.56;486832;28;18891;-67
2021/04/20 01:09:35;;;;;;;10.05;5.18;;;;;;;19.62;48.19;101156.53;487261;28;977;-67
2021/04/20 01:09:51;;;;;;;8.27;5.13;;;;;;;19.60;48.11;101154.00;487435;28;1215;-65
2021/04/20 01:10:06;;;;;;;7.55;4.95;;;;;;;19.61;48.06;101152.13;487410;28;870;-66
2021/04/20 01:10:20;;;;;;;8.98;5.10;;;;;;;19.61;48.13;101157.56;487461;28;882;-66
2021/04/20 01:10:38;;;;;;;9.80;5.40;;;;;;;19.60;48.27;101155.88;487439;28;888;-66
2021/04/20 01:10:55;;;;;;;9.85;5.40;;;;;;;19.60;47.96;101154.00;486637;28;19785;-66
2021/04/20 01:11:10;;;;;;;9.48;5.28;;;;;;;19.60;48.04;101158.59;487474;28;842;-64
2021/04/20 01:11:25;;;;;;;8.88;5.10;;;;;;;19.59;48.34;101149.59;487365;28;989;-66
2021/04/20 01:11:41;;;;;;;8.60;5.05;;;;;;;19.58;48.19;101150.63;487407;28;841;-66